createdAt,value
2023-04-02T00:00:48.711Z,85.512
2023-04-02T00:01:49.017Z,85.608
2023-04-02T00:02:49.723Z,85.327
2023-04-02T00:03:49.311Z,85.644
2023-04-02T00:04:48.723Z,86.029
2023-04-02T00:05:48.856Z,85.955
2023-04-02T00:06:49.173Z,85.802
2023-04-02T00:07:49.475Z,85.707
2023-04-02T00:08:48.626Z,85.876
2023-04-02T00:09:48.831Z,85.981
2023-04-02T00:10:49.148Z,85.661
2023-04-02T00:11:49.327Z,85.703
2023-04-02T00:12:49.496Z,85.766
2023-04-02T00:13:48.645Z,85.913
2023-04-02T00:14:48.850Z,85.354
2023-04-02T00:15:49.199Z,85.442
2023-04-02T00:16:49.791Z,85.760
2023-04-02T00:17:49.013Z,85.794
2023-04-02T00:18:49.313Z,86.161
2023-04-02T00:19:49.524Z,85.886
2023-04-02T00:20:48.691Z,86.054
2023-04-02T00:21:48.848Z,86.144
2023-04-02T00:22:49.104Z,86.006
2023-04-02T00:23:49.342Z,85.972
2023-04-02T00:24:48.721Z,86.266
2023-04-02T00:25:48.916Z,86.435
2023-04-02T00:26:49.095Z,86.100
2023-04-02T00:27:49.247Z,86.433
2023-04-02T00:28:49.411Z,86.527
2023-04-02T00:29:49.569Z,86.237
2023-04-02T00:30:48.696Z,86.367
2023-04-02T00:31:48.909Z,86.243
2023-04-02T00:32:49.541Z,86.266
2023-04-02T00:34:49.063Z,86.399
2023-04-02T00:35:49.345Z,86.920
2023-04-02T00:36:48.680Z,86.720
2023-04-02T00:37:48.891Z,87.048
2023-04-02T00:38:49.106Z,86.962
2023-04-02T00:39:49.301Z,86.821
2023-04-02T00:40:49.499Z,86.815
2023-04-02T00:41:48.736Z,86.470
2023-04-02T00:42:48.943Z,86.334
2023-04-02T00:43:49.148Z,86.565
2023-04-02T00:44:49.274Z,86.329
2023-04-02T00:45:49.496Z,86.584
2023-04-02T00:46:49.062Z,86.443
2023-04-02T00:47:49.303Z,86.458
2023-04-02T00:48:48.621Z,86.588
2023-04-02T00:49:48.880Z,86.622
2023-04-02T00:50:49.086Z,86.548
2023-04-02T00:51:49.324Z,86.391
2023-04-02T00:52:49.457Z,86.542
2023-04-02T00:53:49.593Z,86.586
2023-04-02T00:54:48.698Z,86.470
2023-04-02T00:55:48.827Z,86.550
2023-04-02T00:56:49.129Z,86.716
2023-04-02T00:57:49.547Z,86.672
2023-04-02T00:58:48.674Z,86.172
2023-04-02T00:59:48.784Z,86.405
2023-04-02T01:00:48.947Z,86.470
2023-04-02T01:01:49.029Z,86.535
2023-04-02T01:02:49.693Z,86.243
2023-04-02T01:03:49.256Z,86.407
2023-04-02T01:05:49.514Z,86.493
2023-04-02T01:06:48.785Z,86.741
2023-04-02T01:07:48.936Z,86.529
2023-04-02T01:08:49.164Z,86.803
2023-04-02T01:09:49.362Z,87.057
2023-04-02T01:10:49.592Z,86.855
2023-04-02T01:11:48.708Z,86.870
2023-04-02T01:12:48.848Z,86.935
2023-04-02T01:13:49.047Z,86.748
2023-04-02T01:14:49.281Z,87.009
2023-04-02T01:15:49.648Z,87.053
2023-04-02T01:16:49.127Z,87.029
2023-04-02T01:17:49.614Z,86.891
2023-04-02T01:18:48.988Z,87.183
2023-04-02T01:19:49.082Z,87.000
2023-04-02T01:20:49.350Z,86.794
2023-04-02T01:21:49.472Z,86.943
2023-04-02T01:22:48.654Z,86.720
2023-04-02T01:23:48.772Z,86.756
2023-04-02T01:24:48.918Z,86.903
2023-04-02T01:25:49.077Z,86.981
2023-04-02T01:26:49.290Z,86.887
2023-04-02T01:27:49.518Z,86.935
2023-04-02T01:28:48.699Z,87.099
2023-04-02T01:29:48.851Z,87.029
2023-04-02T01:30:49.156Z,86.897
2023-04-02T01:31:49.631Z,86.773
2023-04-02T01:32:48.849Z,86.668
2023-04-02T01:33:49.323Z,86.824
2023-04-02T01:34:49.543Z,86.882
2023-04-02T01:35:48.836Z,86.691
2023-04-02T01:36:49.172Z,86.411
2023-04-02T01:37:49.369Z,86.540
2023-04-02T01:38:49.536Z,86.552
2023-04-02T01:39:48.670Z,86.723
2023-04-02T01:40:48.913Z,86.750
2023-04-02T01:41:49.166Z,86.760
2023-04-02T01:42:49.360Z,86.725
2023-04-02T01:43:49.509Z,86.746
2023-04-02T01:44:48.745Z,86.891
2023-04-02T01:45:48.918Z,86.908
2023-04-02T01:46:49.257Z,86.920
2023-04-02T01:47:49.648Z,86.676
2023-04-02T01:48:48.981Z,86.710
2023-04-02T01:49:49.072Z,86.777
2023-04-02T01:50:49.343Z,86.756
2023-04-02T01:51:49.460Z,86.872
2023-04-02T01:52:48.752Z,87.044
2023-04-02T01:53:48.844Z,86.847
2023-04-02T01:54:49.019Z,86.830
2023-04-02T01:55:49.140Z,86.725
2023-04-02T01:56:49.394Z,86.872
2023-04-02T01:57:49.251Z,86.769
2023-04-02T01:58:49.438Z,86.811
2023-04-02T01:59:49.601Z,86.548
2023-04-02T02:00:49.003Z,86.672
2023-04-02T02:01:49.622Z,86.821
2023-04-02T02:02:48.882Z,86.498
2023-04-02T02:03:49.312Z,86.632
2023-04-02T02:04:49.487Z,86.988
2023-04-02T02:05:48.718Z,86.723
2023-04-02T02:06:48.890Z,86.988
2023-04-02T02:07:49.199Z,87.051
2023-04-02T02:08:49.403Z,87.185
2023-04-02T02:09:48.562Z,87.080
2023-04-02T02:10:48.886Z,86.844
2023-04-02T02:11:49.157Z,86.840
2023-04-02T02:12:49.340Z,86.958
2023-04-02T02:13:49.445Z,86.927
2023-04-02T02:14:48.596Z,86.987
2023-04-02T02:15:48.796Z,87.185
2023-04-02T02:16:49.381Z,87.095
2023-04-02T02:17:49.737Z,86.912
2023-04-02T02:18:48.957Z,87.086
2023-04-02T02:19:49.098Z,87.065
2023-04-02T02:20:49.237Z,87.240
2023-04-02T02:21:49.392Z,87.181
2023-04-02T02:22:49.656Z,87.416
2023-04-02T02:23:48.813Z,87.181
2023-04-02T02:24:48.917Z,87.202
2023-04-02T02:25:49.215Z,87.164
2023-04-02T02:26:49.422Z,87.059
2023-04-02T02:27:49.563Z,87.259
2023-04-02T02:28:48.823Z,87.069
2023-04-02T02:29:48.964Z,86.706
2023-04-02T02:30:49.220Z,87.042
2023-04-02T02:31:49.688Z,87.055
2023-04-02T02:32:48.972Z,87.267
2023-04-02T02:33:49.368Z,87.246
2023-04-02T02:34:49.526Z,87.284
2023-04-02T02:35:48.862Z,87.019
2023-04-02T02:36:49.483Z,87.011
2023-04-02T02:37:48.621Z,87.097
2023-04-02T02:38:48.874Z,87.351
2023-04-02T02:39:49.204Z,87.370
2023-04-02T02:40:49.427Z,87.311
2023-04-02T02:41:49.607Z,87.149
2023-04-02T02:42:48.880Z,87.025
2023-04-02T02:43:49.068Z,87.082
2023-04-02T02:44:49.229Z,87.334
2023-04-02T02:45:49.442Z,87.359
2023-04-02T02:46:48.980Z,87.189
2023-04-02T02:47:49.207Z,87.326
2023-04-02T02:48:49.493Z,87.359
2023-04-02T02:49:48.718Z,87.196
2023-04-02T02:50:48.904Z,87.526
2023-04-02T02:51:49.027Z,87.343
2023-04-02T02:52:49.208Z,87.294
2023-04-02T02:53:49.387Z,87.431
2023-04-02T02:54:49.551Z,87.259
2023-04-02T02:55:48.669Z,87.206
2023-04-02T02:56:48.872Z,87.143
2023-04-02T02:57:49.273Z,86.945
2023-04-02T02:58:48.871Z,87.412
2023-04-02T02:59:49.049Z,87.519
2023-04-02T03:00:49.216Z,87.473
2023-04-02T03:01:49.728Z,87.563
2023-04-02T03:02:49.281Z,87.379
2023-04-02T03:03:49.440Z,87.372
2023-04-02T03:06:49.585Z,87.606
2023-04-02T03:07:48.683Z,87.587
2023-04-02T03:08:48.891Z,87.635
2023-04-02T03:09:49.044Z,87.521
2023-04-02T03:10:49.224Z,87.503
2023-04-02T03:11:49.339Z,87.534
2023-04-02T03:12:49.468Z,87.406
2023-04-02T03:13:48.598Z,87.551
2023-04-02T03:14:48.729Z,87.704
2023-04-02T03:15:48.985Z,87.559
2023-04-02T03:16:49.390Z,87.717
2023-04-02T03:17:49.690Z,87.780
2023-04-02T03:18:49.256Z,87.709
2023-04-02T03:19:49.383Z,87.427
2023-04-02T03:20:49.583Z,87.355
2023-04-02T03:21:48.789Z,87.585
2023-04-02T03:22:48.954Z,87.603
2023-04-02T03:23:49.097Z,87.641
2023-04-02T03:24:49.285Z,87.648
2023-04-02T03:25:49.458Z,87.936
2023-04-02T03:26:49.586Z,87.730
2023-04-02T03:27:48.743Z,87.917
2023-04-02T03:28:48.963Z,87.755
2023-04-02T03:29:49.126Z,88.173
2023-04-02T03:30:49.363Z,87.616
2023-04-02T03:31:48.842Z,88.024
2023-04-02T03:32:49.160Z,87.940
2023-04-02T03:33:49.600Z,88.270
2023-04-02T03:34:48.667Z,87.862
2023-04-02T03:35:48.827Z,87.965
2023-04-02T03:36:49.165Z,87.786
2023-04-02T03:37:49.410Z,87.751
2023-04-02T03:38:49.596Z,87.791
2023-04-02T03:39:48.828Z,87.746
2023-04-02T03:40:49.167Z,87.664
2023-04-02T03:41:49.404Z,87.793
2023-04-02T03:42:49.865Z,87.944
2023-04-02T03:43:49.001Z,88.181
2023-04-02T03:44:49.202Z,88.118
2023-04-02T03:45:49.472Z,88.060
2023-04-02T03:46:48.959Z,87.893
2023-04-02T03:47:49.395Z,87.784
2023-04-02T03:48:48.720Z,88.030
2023-04-02T03:49:48.851Z,88.076
2023-04-02T03:50:48.986Z,87.996
2023-04-02T03:51:49.125Z,88.261
2023-04-02T03:52:49.296Z,88.322
2023-04-02T03:53:49.452Z,88.453
2023-04-02T03:54:54.582Z,88.686
2023-04-02T03:56:49.065Z,88.654
2023-04-02T03:57:49.395Z,88.497
2023-04-02T03:58:50.396Z,88.526
2023-04-02T04:00:48.879Z,88.429
2023-04-02T04:01:49.057Z,88.354
2023-04-02T04:02:49.501Z,88.482
2023-04-02T04:03:48.896Z,88.665
2023-04-02T04:04:49.537Z,88.766
2023-04-02T04:05:48.832Z,88.434
2023-04-02T04:06:48.954Z,88.331
2023-04-02T04:07:49.092Z,88.413
2023-04-02T04:08:49.283Z,88.678
2023-04-02T04:09:49.432Z,88.659
2023-04-02T04:10:48.662Z,88.677
2023-04-02T04:11:48.964Z,88.572
2023-04-02T04:12:49.118Z,88.343
2023-04-02T04:13:49.344Z,88.472
2023-04-02T04:14:49.556Z,88.507
2023-04-02T04:15:48.632Z,88.440
2023-04-02T04:16:49.031Z,88.617
2023-04-02T04:17:49.289Z,88.780
2023-04-02T04:18:48.607Z,88.707
2023-04-02T04:19:48.774Z,88.612
2023-04-02T04:20:48.910Z,88.560
2023-04-02T04:21:49.199Z,88.673
2023-04-02T04:22:49.530Z,88.539
2023-04-02T04:23:48.679Z,88.631
2023-04-02T04:24:48.908Z,88.608
2023-04-02T04:25:49.362Z,88.574
2023-04-02T04:26:49.631Z,88.854
2023-04-02T04:27:49.327Z,88.799
2023-04-02T04:28:49.477Z,88.667
2023-04-02T04:29:48.632Z,88.963
2023-04-02T04:30:49.283Z,89.087
2023-04-02T04:31:49.622Z,89.054
2023-04-02T04:32:49.243Z,89.048
2023-04-02T04:33:49.582Z,88.955
2023-04-02T04:34:48.755Z,89.020
2023-04-02T04:35:49.125Z,88.854
2023-04-02T04:36:49.430Z,88.690
2023-04-02T04:37:49.605Z,88.957
2023-04-02T04:38:48.928Z,88.963
2023-04-02T04:39:49.093Z,88.965
2023-04-02T04:40:49.300Z,88.888
2023-04-02T04:41:49.517Z,88.907
2023-04-02T04:42:48.668Z,89.184
2023-04-02T04:43:48.975Z,89.066
2023-04-02T04:44:49.119Z,89.142
2023-04-02T04:45:49.394Z,89.188
2023-04-02T04:46:48.835Z,89.239
2023-04-02T04:47:49.149Z,89.022
2023-04-02T04:48:49.427Z,88.951
2023-04-02T04:49:49.617Z,88.942
2023-04-02T04:50:48.757Z,88.890
2023-04-02T04:51:49.020Z,89.008
2023-04-02T04:52:49.223Z,88.926
2023-04-02T04:53:49.408Z,88.970
2023-04-02T04:54:49.537Z,89.022
2023-04-02T04:55:48.713Z,89.005
2023-04-02T04:57:50.399Z,89.205
2023-04-02T04:58:50.538Z,89.171
2023-04-02T04:59:49.846Z,89.174
2023-04-02T05:00:51.564Z,88.844
2023-04-02T05:01:50.026Z,88.944
2023-04-02T05:02:50.459Z,88.930
2023-04-02T05:03:49.733Z,88.753
2023-04-02T05:04:50.239Z,89.058
2023-04-02T05:05:50.497Z,89.115
2023-04-02T05:06:49.596Z,89.302
2023-04-02T05:07:49.753Z,89.026
2023-04-02T05:08:49.944Z,89.359
2023-04-02T05:09:50.166Z,89.159
2023-04-02T05:10:50.368Z,89.134
2023-04-02T05:11:50.587Z,89.190
2023-04-02T05:12:49.741Z,89.159
2023-04-02T05:13:49.936Z,89.085
2023-04-02T05:14:50.093Z,89.155
2023-04-02T05:15:50.490Z,89.026
2023-04-02T05:16:49.913Z,89.043
2023-04-02T05:17:50.391Z,89.233
2023-04-02T05:18:49.664Z,89.056
2023-04-02T05:19:49.874Z,88.947
2023-04-02T05:20:50.141Z,89.069
2023-04-02T05:21:50.223Z,89.111
2023-04-02T05:22:50.628Z,89.155
2023-04-02T05:23:49.909Z,89.041
2023-04-02T05:24:50.094Z,89.075
2023-04-02T05:25:50.294Z,88.816
2023-04-02T05:26:50.472Z,89.085
2023-04-02T05:27:49.764Z,88.938
2023-04-02T05:28:49.957Z,89.264
2023-04-02T05:29:50.284Z,89.066
2023-04-02T05:30:50.571Z,89.148
2023-04-02T05:31:49.835Z,89.033
2023-04-02T05:32:50.193Z,89.268
2023-04-02T05:33:50.532Z,89.205
2023-04-02T05:34:49.684Z,89.260
2023-04-02T05:35:49.891Z,89.304
2023-04-02T05:36:50.517Z,89.315
2023-04-02T05:37:49.882Z,89.283
2023-04-02T05:38:49.972Z,89.256
2023-04-02T05:39:50.136Z,89.430
2023-04-02T05:40:50.309Z,89.443
2023-04-02T05:41:50.461Z,89.577
2023-04-02T05:42:49.653Z,90.015
2023-04-02T05:43:49.748Z,89.636
2023-04-02T05:44:49.924Z,89.933
2023-04-02T05:45:50.135Z,89.815
2023-04-02T05:46:50.525Z,89.951
2023-04-02T05:47:49.825Z,89.914
2023-04-02T05:48:50.273Z,90.294
2023-04-02T05:50:49.729Z,90.044
2023-04-02T05:51:49.896Z,90.286
2023-04-02T05:52:50.019Z,90.347
2023-04-02T05:53:50.320Z,90.544
2023-04-02T05:54:50.589Z,90.376
2023-04-02T05:55:49.734Z,90.660
2023-04-02T05:56:50.006Z,90.738
2023-04-02T05:58:14.005Z,91.051
2023-04-02T06:00:07.141Z,90.847
2023-04-02T06:01:06.232Z,90.862
2023-04-02T06:02:06.496Z,91.024
2023-04-02T06:03:06.162Z,91.129
2023-04-02T06:04:05.729Z,91.074
2023-04-02T06:05:05.935Z,91.124
2023-04-02T06:06:06.092Z,91.162
2023-04-02T06:07:06.209Z,91.444
2023-04-02T06:08:06.417Z,91.469
2023-04-02T06:09:06.548Z,91.406
2023-04-02T06:10:05.702Z,91.755
2023-04-02T06:11:05.651Z,91.755
2023-04-02T06:12:05.841Z,91.698
2023-04-02T06:13:05.955Z,91.768
2023-04-02T06:14:06.112Z,91.650
2023-04-02T06:15:06.324Z,91.816
2023-04-02T06:16:06.810Z,91.848
2023-04-02T06:17:06.188Z,91.976
2023-04-02T06:18:06.490Z,92.165
2023-04-02T06:19:05.835Z,91.946
2023-04-02T06:20:06.080Z,92.054
2023-04-02T06:21:06.252Z,92.192
2023-04-02T06:22:06.497Z,92.196
2023-04-02T06:23:05.613Z,92.365
2023-04-02T06:24:05.703Z,92.564
2023-04-02T06:25:05.876Z,92.316
2023-04-02T06:26:06.030Z,92.432
2023-04-02T06:27:06.199Z,92.445
2023-04-02T06:28:06.343Z,92.867
2023-04-02T06:29:06.588Z,93.075
2023-04-02T06:30:05.817Z,93.256
2023-04-02T06:31:06.133Z,93.144
2023-04-02T06:32:05.721Z,93.151
2023-04-02T06:33:06.263Z,93.174
2023-04-02T06:34:06.492Z,93.430
2023-04-02T06:35:05.693Z,92.697
2023-04-02T06:36:06.115Z,93.004
2023-04-02T06:37:06.441Z,93.283
2023-04-02T06:38:05.732Z,93.094
2023-04-02T06:39:05.839Z,93.342
2023-04-02T06:40:05.940Z,93.264
2023-04-02T06:41:06.104Z,93.083
2023-04-02T06:42:06.245Z,93.506
2023-04-02T06:43:06.511Z,93.493
2023-04-02T06:44:05.675Z,93.445
2023-04-02T06:45:05.809Z,93.611
2023-04-02T06:46:06.158Z,93.727
2023-04-02T06:47:06.507Z,93.765
2023-04-02T06:49:06.559Z,93.912
2023-04-02T06:50:05.812Z,93.874
2023-04-02T06:51:06.035Z,93.887
2023-04-02T06:52:06.236Z,93.765
2023-04-02T06:53:06.407Z,93.994
2023-04-02T06:54:06.572Z,93.905
2023-04-02T06:55:05.844Z,94.269
2023-04-02T06:56:06.388Z,94.387
2023-04-02T06:57:06.658Z,93.821
2023-04-02T06:58:06.256Z,94.217
2023-04-02T06:59:06.382Z,94.322
2023-04-02T07:00:07.052Z,94.372
2023-04-02T07:01:06.329Z,94.380
2023-04-02T07:02:05.689Z,94.469
2023-04-02T07:03:05.914Z,94.393
2023-04-02T07:04:06.189Z,94.471
2023-04-02T07:05:06.771Z,94.504
2023-04-02T07:06:06.060Z,94.454
2023-04-02T07:07:06.184Z,94.465
2023-04-02T07:08:06.328Z,94.422
2023-04-02T07:09:06.521Z,94.725
2023-04-02T07:10:05.644Z,94.443
2023-04-02T07:11:05.836Z,94.618
2023-04-02T07:12:05.908Z,94.641
2023-04-02T07:13:06.068Z,94.513
2023-04-02T07:14:06.254Z,94.622
2023-04-02T07:15:05.715Z,94.551
2023-04-02T07:16:06.919Z,94.750
2023-04-02T07:17:05.646Z,94.811
2023-04-02T07:18:06.187Z,94.853
2023-04-02T07:19:06.350Z,94.620
2023-04-02T07:20:06.538Z,94.824
2023-04-02T07:21:05.659Z,94.534
2023-04-02T07:22:05.844Z,93.191
2023-04-02T07:23:05.955Z,92.222
2023-04-02T07:24:06.127Z,92.192
2023-04-02T07:25:06.340Z,91.620
2023-04-02T07:26:06.518Z,91.847
2023-04-02T07:27:05.685Z,91.532
2023-04-02T07:28:05.789Z,91.974
2023-04-02T07:29:06.031Z,91.906
2023-04-02T07:30:06.143Z,91.955
2023-04-02T07:31:06.344Z,91.734
2023-04-02T07:32:05.709Z,91.238
2023-04-02T07:33:05.875Z,91.316
2023-04-02T07:34:06.300Z,91.185
2023-04-02T07:35:06.427Z,91.259
2023-04-02T07:36:06.702Z,91.414
2023-04-02T07:37:05.968Z,91.543
2023-04-02T07:38:06.197Z,91.860
2023-04-02T07:39:06.364Z,91.812
2023-04-02T07:40:06.516Z,91.631
2023-04-02T07:41:05.672Z,91.976
2023-04-02T07:42:05.827Z,92.354
2023-04-02T07:43:05.994Z,92.522
2023-04-02T07:44:06.276Z,92.562
2023-04-02T07:45:07.651Z,92.022
2023-04-02T07:46:05.806Z,91.551
2023-04-02T07:47:06.183Z,92.150
2023-04-02T07:48:06.471Z,92.020
2023-04-02T07:49:05.658Z,92.003
2023-04-02T07:50:05.823Z,92.199
2023-04-02T07:51:06.131Z,92.566
2023-04-02T07:52:06.285Z,92.373
2023-04-02T07:53:06.415Z,92.243
2023-04-02T07:54:06.587Z,92.152
2023-04-02T07:55:05.755Z,91.986
2023-04-02T07:56:05.909Z,91.959
2023-04-02T07:57:06.184Z,91.959
2023-04-02T07:58:06.509Z,91.696
2023-04-02T07:59:05.706Z,91.505
2023-04-02T08:00:05.892Z,92.457
2023-04-02T08:01:05.653Z,91.681
2023-04-02T08:02:06.029Z,91.744
2023-04-02T08:03:06.777Z,91.395
2023-04-02T08:04:06.196Z,91.269
2023-04-02T08:06:05.848Z,91.534
2023-04-02T08:07:06.051Z,91.681
2023-04-02T08:08:06.232Z,91.402
2023-04-02T08:09:06.377Z,91.211
2023-04-02T08:10:06.591Z,91.528
2023-04-02T08:11:05.983Z,91.475
2023-04-02T08:12:06.225Z,91.227
2023-04-02T08:13:06.387Z,91.215
2023-04-02T08:14:06.627Z,90.330
2023-04-02T08:15:05.800Z,91.267
2023-04-02T08:16:05.991Z,90.887
2023-04-02T08:17:06.439Z,90.960
2023-04-02T08:18:05.706Z,89.808
2023-04-02T08:19:05.914Z,90.172
2023-04-02T08:22:06.251Z,90.237
2023-04-02T08:23:06.427Z,90.040
2023-04-02T08:24:06.631Z,89.804
2023-04-02T08:25:05.756Z,89.550
2023-04-02T08:26:05.912Z,90.511
2023-04-02T08:27:06.083Z,90.578
2023-04-02T08:28:06.325Z,90.185
2023-04-02T08:29:06.512Z,90.082
2023-04-02T08:30:05.723Z,89.945
2023-04-02T08:31:06.385Z,90.277
2023-04-02T08:32:05.895Z,89.781
2023-04-02T08:33:06.143Z,89.459
2023-04-02T08:34:06.458Z,90.117
2023-04-02T08:35:05.609Z,90.435
2023-04-02T08:36:05.916Z,89.590
2023-04-02T08:37:06.537Z,90.008
2023-04-02T08:38:05.697Z,90.172
2023-04-02T08:39:05.887Z,89.245
2023-04-02T08:40:06.009Z,89.119
2023-04-02T08:41:06.205Z,88.747
2023-04-02T08:42:06.388Z,89.590
2023-04-02T08:43:06.573Z,88.314
2023-04-02T08:44:06.380Z,88.846
2023-04-02T08:45:23.366Z,89.041
2023-04-02T08:46:06.711Z,88.823
2023-04-02T08:47:05.971Z,88.781
2023-04-02T08:48:06.377Z,89.407
2023-04-02T08:49:06.569Z,88.671
2023-04-02T08:50:05.827Z,88.614
2023-04-02T08:51:06.068Z,88.680
2023-04-02T08:52:06.238Z,88.015
2023-04-02T08:53:06.371Z,86.718
2023-04-02T08:54:06.422Z,86.844
2023-04-02T08:55:06.620Z,88.728
2023-04-02T08:56:05.941Z,87.822
2023-04-02T08:57:06.220Z,87.065
2023-04-02T08:58:06.627Z,87.099
2023-04-02T08:59:05.805Z,87.212
2023-04-02T09:00:05.965Z,88.261
2023-04-02T09:01:06.147Z,87.137
2023-04-02T09:02:06.840Z,87.067
2023-04-02T09:03:06.153Z,88.181
2023-04-02T09:04:06.307Z,87.778
2023-04-02T09:05:05.864Z,85.836
2023-04-02T09:06:06.173Z,87.095
2023-04-02T09:07:06.307Z,88.200
2023-04-02T09:08:06.447Z,87.812
2023-04-02T09:09:06.572Z,87.313
2023-04-02T09:10:05.760Z,87.202
2023-04-02T09:11:05.886Z,86.460
2023-04-02T09:12:06.146Z,87.322
2023-04-02T09:13:06.303Z,86.359
2023-04-02T09:14:06.503Z,86.817
2023-04-02T09:15:05.641Z,87.252
2023-04-02T09:16:05.903Z,87.647
2023-04-02T09:17:06.267Z,87.334
2023-04-02T09:18:11.370Z,86.998
2023-04-02T09:20:05.829Z,87.103
2023-04-02T09:21:06.044Z,86.456
2023-04-02T09:22:06.361Z,86.954
2023-04-02T09:23:06.524Z,87.799
2023-04-02T09:24:06.760Z,87.116
2023-04-02T09:26:10.909Z,87.227
2023-04-02T09:29:06.245Z,87.009
2023-04-02T09:30:06.416Z,87.212
2023-04-02T09:31:08.588Z,85.567
2023-04-02T09:32:06.107Z,86.443
2023-04-02T09:33:06.377Z,86.374
2023-04-02T09:34:05.628Z,85.524
2023-04-02T09:35:18.733Z,85.390
2023-04-02T09:36:05.774Z,84.730
2023-04-02T09:37:06.128Z,84.640
2023-04-02T09:38:06.324Z,85.676
2023-04-02T09:39:05.638Z,85.144
2023-04-02T09:40:05.778Z,84.787
2023-04-02T09:41:06.010Z,84.696
2023-04-02T09:42:11.074Z,84.690
2023-04-02T09:44:06.437Z,84.944
2023-04-02T09:45:06.637Z,85.205
2023-04-02T09:46:05.803Z,85.663
2023-04-02T09:47:06.464Z,85.073
2023-04-02T09:48:05.859Z,84.396
2023-04-02T09:49:06.010Z,85.844
2023-04-02T09:50:06.109Z,85.613
2023-04-02T09:51:06.487Z,84.570
2023-04-02T09:52:05.672Z,86.281
2023-04-02T09:53:05.829Z,85.814
2023-04-02T09:54:05.963Z,85.753
2023-04-02T09:55:06.043Z,84.595
2023-04-02T09:56:06.269Z,85.936
2023-04-02T09:57:06.513Z,85.344
2023-04-02T09:58:06.092Z,85.983
2023-04-02T09:59:06.227Z,85.087
2023-04-02T10:00:05.640Z,85.173
2023-04-02T10:01:06.375Z,86.861
2023-04-02T10:02:06.581Z,84.570
2023-04-02T10:03:05.989Z,86.782
2023-04-02T10:04:06.206Z,85.087
2023-04-02T10:05:06.491Z,85.314
2023-04-02T10:07:09.343Z,85.779
2023-04-02T10:08:09.467Z,84.520
2023-04-02T10:09:08.640Z,85.472
2023-04-02T10:10:08.801Z,84.658
2023-04-02T10:11:09.080Z,86.065
2023-04-02T10:12:09.283Z,85.562
2023-04-02T10:13:09.411Z,85.304
2023-04-02T10:14:08.568Z,86.306
2023-04-02T10:15:08.876Z,85.566
2023-04-02T10:16:09.364Z,86.510
2023-04-02T10:17:08.914Z,86.367
2023-04-02T10:18:09.358Z,86.123
2023-04-02T10:19:08.743Z,86.285
2023-04-02T10:20:08.986Z,85.106
2023-04-02T10:21:10.500Z,86.191
2023-04-02T10:23:08.823Z,85.258
2023-04-02T10:24:08.973Z,84.829
2023-04-02T10:25:09.120Z,84.610
2023-04-02T10:26:09.345Z,84.898
2023-04-02T10:27:09.509Z,83.313
2023-04-02T10:28:08.916Z,84.496
2023-04-02T10:29:09.071Z,84.511
2023-04-02T10:30:09.216Z,84.837
2023-04-02T10:31:09.575Z,85.152
2023-04-02T10:32:09.008Z,84.656
2023-04-02T10:33:09.315Z,81.499
2023-04-02T10:34:09.616Z,83.227
2023-04-02T10:35:08.835Z,81.856
2023-04-02T10:36:09.322Z,82.443
2023-04-02T10:37:09.629Z,82.109
2023-04-02T10:38:08.787Z,83.113
2023-04-02T10:39:08.935Z,81.348
2023-04-02T10:40:09.160Z,81.896
2023-04-02T10:41:09.535Z,81.278
2023-04-02T10:42:08.643Z,79.216
2023-04-02T10:43:08.778Z,80.799
2023-04-02T10:46:09.557Z,80.252
2023-04-02T10:47:08.606Z,80.715
2023-04-02T10:48:08.859Z,78.733
2023-04-02T10:49:09.107Z,80.133
2023-04-02T10:50:09.577Z,79.508
2023-04-02T10:51:08.705Z,80.614
2023-04-02T10:52:08.840Z,80.830
2023-04-02T10:53:09.016Z,79.851
2023-04-02T10:54:09.313Z,78.312
2023-04-02T10:55:09.482Z,78.918
2023-04-02T10:56:08.578Z,80.070
2023-04-02T10:57:10.967Z,80.519
2023-04-02T10:58:09.569Z,79.094
2023-04-02T10:59:08.737Z,80.563
2023-04-02T11:00:08.875Z,80.719
2023-04-02T11:01:09.052Z,79.964
2023-04-02T11:02:09.419Z,80.368
2023-04-02T11:03:08.912Z,80.585
2023-04-02T11:05:09.294Z,82.443
2023-04-02T11:09:09.494Z,81.785
2023-04-02T11:10:08.636Z,81.366
2023-04-02T11:11:08.916Z,80.542
2023-04-02T11:12:09.123Z,80.803
2023-04-02T11:13:09.332Z,81.121
2023-04-02T11:14:09.446Z,81.327
2023-04-02T11:15:08.621Z,81.627
2023-04-02T11:16:08.983Z,80.276
2023-04-02T11:17:09.365Z,80.732
2023-04-02T11:18:08.658Z,80.709
2023-04-02T11:19:08.844Z,78.939
2023-04-02T11:20:09.052Z,80.515
2023-04-02T11:21:09.299Z,80.942
2023-04-02T11:22:14.380Z,79.498
2023-04-02T11:24:08.632Z,79.760
2023-04-02T11:25:08.720Z,80.536
2023-04-02T11:26:08.929Z,80.461
2023-04-02T11:27:09.093Z,81.556
2023-04-02T11:28:09.269Z,80.261
2023-04-02T11:29:09.057Z,82.560
2023-04-02T11:30:09.137Z,80.782
2023-04-02T11:31:09.362Z,82.119
2023-04-02T11:32:08.587Z,82.029
2023-04-02T11:33:09.092Z,83.443
2023-04-02T11:35:14.970Z,82.388
2023-04-02T11:38:10.597Z,82.733
2023-04-02T11:39:17.217Z,82.403
2023-04-02T11:41:09.887Z,82.657
2023-04-02T11:42:10.067Z,81.289
2023-04-02T11:43:10.267Z,81.215
2023-04-02T11:44:10.491Z,81.100
2023-04-02T11:45:09.748Z,81.491
2023-04-02T11:46:12.415Z,81.325
2023-04-02T11:49:10.356Z,81.476
2023-04-02T11:50:10.178Z,82.298
2023-04-02T11:54:10.308Z,81.234
2023-04-02T11:55:10.479Z,82.630
2023-04-02T11:56:09.644Z,80.883
2023-04-02T11:57:10.140Z,81.154
2023-04-02T11:58:10.595Z,84.318
2023-04-02T11:59:09.832Z,83.546
2023-04-02T12:00:10.183Z,82.067
2023-04-02T12:01:10.524Z,82.895
2023-04-02T12:02:09.777Z,82.867
2023-04-02T12:03:10.399Z,83.179
2023-04-02T12:04:10.588Z,82.127
2023-04-02T12:05:09.857Z,81.327
2023-04-02T12:06:10.134Z,82.785
2023-04-02T12:07:10.330Z,82.783
2023-04-02T12:08:10.766Z,82.197
2023-04-02T12:09:09.875Z,81.358
2023-04-02T12:10:10.059Z,82.563
2023-04-02T12:11:10.263Z,81.837
2023-04-02T12:12:11.108Z,83.078
2023-04-02T12:13:10.377Z,83.147
2023-04-02T12:14:10.644Z,83.862
2023-04-02T12:15:09.823Z,82.699
2023-04-02T12:16:10.048Z,84.013
2023-04-02T12:17:11.578Z,82.045
2023-04-02T12:18:09.928Z,82.853
2023-04-02T12:19:11.104Z,82.767
2023-04-02T12:21:10.560Z,82.275
2023-04-02T12:22:09.757Z,83.078
2023-04-02T12:23:09.976Z,82.256
2023-04-02T12:24:10.092Z,81.436
2023-04-02T12:25:10.260Z,81.800
2023-04-02T12:26:10.472Z,82.567
2023-04-02T12:27:09.688Z,81.613
2023-04-02T12:28:09.814Z,82.098
2023-04-02T12:29:10.056Z,81.514
2023-04-02T12:30:10.351Z,80.906
2023-04-02T12:31:10.911Z,81.243
2023-04-02T12:32:10.499Z,81.997
2023-04-02T12:33:10.579Z,80.736
2023-04-02T12:35:09.944Z,80.158
2023-04-02T12:36:10.251Z,80.418
2023-04-02T12:37:10.464Z,80.025
2023-04-02T12:38:09.633Z,78.367
2023-04-02T12:39:09.756Z,78.806
2023-04-02T12:40:10.255Z,77.808
2023-04-02T12:41:10.400Z,78.173
2023-04-02T12:42:10.589Z,78.003
2023-04-02T12:43:09.789Z,77.326
2023-04-02T12:44:09.997Z,77.364
2023-04-02T12:45:10.215Z,76.063
2023-04-02T12:46:10.059Z,77.368
2023-04-02T12:47:10.389Z,75.840
2023-04-02T12:48:10.705Z,76.046
2023-04-02T12:49:09.898Z,76.805
2023-04-02T12:50:10.032Z,77.501
2023-04-02T12:51:10.212Z,77.286
2023-04-02T12:52:09.928Z,77.455
2023-04-02T12:53:10.099Z,77.705
2023-04-02T12:54:10.169Z,78.525
2023-04-02T12:55:10.376Z,76.872
2023-04-02T12:56:10.637Z,77.055
2023-04-02T12:57:09.838Z,77.698
2023-04-02T12:58:10.176Z,77.482
2023-04-02T12:59:10.431Z,78.321
2023-04-02T13:00:10.549Z,78.043
2023-04-02T13:01:09.797Z,77.892
2023-04-02T13:02:10.123Z,77.043
2023-04-02T13:03:10.654Z,77.211
2023-04-02T13:04:09.894Z,77.330
2023-04-02T13:05:10.143Z,77.516
2023-04-02T13:06:10.315Z,75.886
2023-04-02T13:07:10.519Z,75.519